Centenario Blu — 3FXD7 — position and weather

sailwx.info

Track history (hours):
 
Tides and Currents Weather Stations Pressure Air Temp Water Temp Dewpoint Dewpoint Depression Visibility Wind Speed Wind Dir Waves Ship Positions

Centenario Blu

Last reported at 2017-Mar-25 11:33 UTC. Time now 2017-Mar-25 11:44 UTC.
Position N 22°35' E 120°13'.

Length 190 m; draft 6.6 m.

Type: Cargo ship. MMSI: 356832000.

Date/timePositionNaut miles runAvg speedWind from/ knotsBaromVisibWave heightAir tempDewpointWater temp
2017-Mar-25 11:33N 22°35' E 120°13'0 0.0
2017-Mar-25 10:33N 22°35' E 120°13'0 0.1
2017-Mar-25 09:33N 22°35' E 120°13'0 0.1
2017-Mar-25 08:33N 22°35' E 120°13'0 0.1
2017-Mar-25 07:33N 22°35' E 120°13'0 0.1
2017-Mar-25 06:33N 22°35' E 120°13'0 0.0
2017-Mar-25 05:33N 22°35' E 120°13'0 0.1
2017-Mar-25 04:33N 22°35' E 120°13'0 0.0
2017-Mar-25 03:33N 22°35' E 120°13'0 0.0
2017-Mar-25 02:33N 22°35' E 120°13'0 0.1
2017-Mar-25 01:33N 22°35' E 120°13'0 0.0
2017-Mar-25 00:33N 22°35' E 120°13'0 0.0
2017-Mar-24 23:33N 22°35' E 120°13'0 0.0
2017-Mar-24 22:33N 22°35' E 120°13'0 0.0
2017-Mar-24 21:30N 22°35' E 120°13'0 0.0
2017-Mar-24 20:33N 22°35' E 120°13'0 0.0
2017-Mar-24 19:33N 22°35' E 120°13'0 0.1
2017-Mar-24 18:33N 22°35' E 120°13'0 0.0
2017-Mar-24 17:30N 22°35' E 120°13'0 0.0
2017-Mar-24 16:33N 22°35' E 120°13'0 0.1
2017-Mar-24 15:33N 22°35' E 120°13'0 0.0
2017-Mar-24 14:33N 22°35' E 120°13'0 0.1
2017-Mar-24 13:33N 22°35' E 120°13'0 0.1
2017-Mar-24 12:33N 22°36' E 120°13'2 2.2
2017-Mar-24 11:33N 22°37' E 120°11'1010.2
2017-Mar-24 10:33N 22°45' E 120°04'1312.6
2017-Mar-24 09:30N 22°56' E 119°55'  
2017-Mar-21 20:33N 30°60' E 122°28'1211.7
2017-Mar-21 19:33N 31°02' E 122°15'9 9.1
2017-Mar-21 18:34N 31°04' E 122°05'1313.0
2017-Mar-21 17:33N 31°10' E 121°51'1312.6
2017-Mar-21 16:34N 31°20' E 121°41'1010.3
2017-Mar-21 15:33N 31°25' E 121°31'9 8.6
2017-Mar-21 14:33N 31°31' E 121°24'1010.2
2017-Mar-21 13:33N 31°38' E 121°15'1212.1
2017-Mar-21 12:32N 31°46' E 121°04'3110.3
2017-Mar-21 09:34N 32°03' E 120°34'11 0.2
2017-Mar-19 06:31N 31°59' E 120°21'9 9.1
2017-Mar-19 05:33N 32°02' E 120°31'26 8.4
2017-Mar-19 02:25N 31°47' E 120°56'6 6.5
2017-Mar-19 01:33N 31°46' E 121°03'3 3.5
2017-Mar-19 00:33N 31°45' E 121°06'10 9.6
2017-Mar-18 23:33N 31°38' E 121°15'1212.3
2017-Mar-18 22:33N 31°30' E 121°26'8 8.5
2017-Mar-18 21:34N 31°24' E 121°33'1010.4
2017-Mar-18 20:33N 31°19' E 121°44'9 8.8
2017-Mar-18 19:33N 31°16' E 121°53'1211.6
2017-Mar-18 18:33N 31°13' E 122°07'1212.5
2017-Mar-18 17:33N 31°06' E 122°19'1110.0
2017-Mar-18 16:29N 31°07' E 122°31'  
Track history (hours):
 
Tides and Currents Weather Stations Pressure Air Temp Water Temp Dewpoint Dewpoint Depression Visibility Wind Speed Wind Dir Waves Ship Positions

Centenario Blu

Last reported at 2017-Mar-25 11:33 UTC. Time now 2017-Mar-25 11:44 UTC.
Position N 22°35' E 120°13'.

Length 190 m; draft 6.6 m.

Type: Cargo ship. MMSI: 356832000.

Date/timePositionNaut miles runAvg speedWind from/ knotsBaromVisibWave heightAir tempDewpointWater temp
2017-Mar-25 11:33N 22°35' E 120°13'0 0.0
2017-Mar-25 10:33N 22°35' E 120°13'0 0.1
2017-Mar-25 09:33N 22°35' E 120°13'0 0.1
2017-Mar-25 08:33N 22°35' E 120°13'0 0.1
2017-Mar-25 07:33N 22°35' E 120°13'0 0.1
2017-Mar-25 06:33N 22°35' E 120°13'0 0.0
2017-Mar-25 05:33N 22°35' E 120°13'0 0.1
2017-Mar-25 04:33N 22°35' E 120°13'0 0.0
2017-Mar-25 03:33N 22°35' E 120°13'0 0.0
2017-Mar-25 02:33N 22°35' E 120°13'0 0.1
2017-Mar-25 01:33N 22°35' E 120°13'0 0.0
2017-Mar-25 00:33N 22°35' E 120°13'0 0.0
2017-Mar-24 23:33N 22°35' E 120°13'0 0.0
2017-Mar-24 22:33N 22°35' E 120°13'0 0.0
2017-Mar-24 21:30N 22°35' E 120°13'0 0.0
2017-Mar-24 20:33N 22°35' E 120°13'0 0.0
2017-Mar-24 19:33N 22°35' E 120°13'0 0.1
2017-Mar-24 18:33N 22°35' E 120°13'0 0.0
2017-Mar-24 17:30N 22°35' E 120°13'0 0.0
2017-Mar-24 16:33N 22°35' E 120°13'0 0.1
2017-Mar-24 15:33N 22°35' E 120°13'0 0.0
2017-Mar-24 14:33N 22°35' E 120°13'0 0.1
2017-Mar-24 13:33N 22°35' E 120°13'0 0.1
2017-Mar-24 12:33N 22°36' E 120°13'2 2.2
2017-Mar-24 11:33N 22°37' E 120°11'1010.2
2017-Mar-24 10:33N 22°45' E 120°04'1312.6
2017-Mar-24 09:30N 22°56' E 119°55'  
2017-Mar-21 20:33N 30°60' E 122°28'1211.7
2017-Mar-21 19:33N 31°02' E 122°15'9 9.1
2017-Mar-21 18:34N 31°04' E 122°05'1313.0
2017-Mar-21 17:33N 31°10' E 121°51'1312.6
2017-Mar-21 16:34N 31°20' E 121°41'1010.3
2017-Mar-21 15:33N 31°25' E 121°31'9 8.6
2017-Mar-21 14:33N 31°31' E 121°24'1010.2
2017-Mar-21 13:33N 31°38' E 121°15'1212.1
2017-Mar-21 12:32N 31°46' E 121°04'3110.3
2017-Mar-21 09:34N 32°03' E 120°34'11 0.2
2017-Mar-19 06:31N 31°59' E 120°21'9 9.1
2017-Mar-19 05:33N 32°02' E 120°31'26 8.4
2017-Mar-19 02:25N 31°47' E 120°56'6 6.5
2017-Mar-19 01:33N 31°46' E 121°03'3 3.5
2017-Mar-19 00:33N 31°45' E 121°06'10 9.6
2017-Mar-18 23:33N 31°38' E 121°15'1212.3
2017-Mar-18 22:33N 31°30' E 121°26'8 8.5
2017-Mar-18 21:34N 31°24' E 121°33'1010.4
2017-Mar-18 20:33N 31°19' E 121°44'9 8.8
2017-Mar-18 19:33N 31°16' E 121°53'1211.6
2017-Mar-18 18:33N 31°13' E 122°07'1212.5
2017-Mar-18 17:33N 31°06' E 122°19'1110.0
2017-Mar-18 16:29N 31°07' E 122°31'  

Dump ship's entire track history